Calipatria, California
Current Conditions -  °F | °C
As of 1:53 PM on Thursday 23 Oct 2014 (Local Time) from KIPL Reporting Station
Clear Clear  
Wind Chill: 93°   Ceiling: Unl
Heat Index: 93°   Visibility: 10mi
Dew Point: 46°   Wind: 5mph
Humidity: 20%   Direction: 300°WNW
Pressure: 29.89"   Gusts: NA
Location:  33.13°N, 115.51°W
Report Text: KIPL 232053Z AUTO 30004KT 10SM CLR 34/08 A2989 RMK AO2 SLP121 T03390078 58027
Loading
Personal Weather Stations






























Interactive Weather Map
Tropical Storm Tracking
New forecast layout! Learn more

10-Day Weather Forecast

Advertisements
Track Severe Weather on mobile